Willow, New York
Current Conditions -  °F | °C
As of 10:53 AM on Friday 21 Nov 2014 (Local Time) from KPOU Reporting Station
Overcast Overcast  
Wind Chill: 25°   Ceiling: 5500
Heat Index: 33°   Visibility: 10mi
Dew Point: 10°   Wind: 10mph
Humidity: 38%   Direction: 300°WNW
Pressure: 30.26"   Gusts: NA
Location:  42.08°N, 74.23°W
Report Text: KPOU 211553Z 30009KT 10SM OVC055 01/M12 A3026 RMK AO2 SLP246 T00061122
Loading
Personal Weather Stations






























Interactive Weather Map New forecast layout! Learn more

10-Day Weather Forecast

Advertisements
Track Severe Weather on mobile